Terminal Aerodrome Forecast
Issued by NWS Pocatello, ID

Home | Current Version | Previous Version | Text Only | Print | Product List | Glossary On
Versions: 1 2 3 4 5 6 7 8 9 10 11 12 13 14 15 16 17 18 19 20 21 22 23 24 25 26 27
000
FTUS45 KPIH 281700
TAFIDA
TAF
KIDA 281720Z 2818/2918 22010KT P6SM OVC015
      TEMPO 2818/2820 3SM -SN OVC008
     FM282000 23011KT P6SM SCT012 BKN060
     FM290100 03006KT 6SM -SN OVC012
      TEMPO 2901/2905 2SM -SN OVC007
     FM291200 01008KT 6SM -SN OVC007=

USA.gov is the U.S. government's official web portal to all federal, state and local government web resources and services.